createdAt,value
2024-02-29T00:01:48.343Z,7.38
2024-02-29T00:04:51.134Z,7.24
2024-02-29T00:07:53.500Z,7.11
2024-02-29T00:10:56.204Z,7.03
2024-02-29T00:13:58.611Z,6.93
2024-02-29T00:17:04.538Z,6.82
2024-02-29T00:20:10.154Z,6.66
2024-02-29T00:23:12.892Z,6.59
2024-02-29T00:26:18.074Z,6.52
2024-02-29T00:29:20.816Z,6.42
2024-02-29T00:32:23.258Z,6.39
2024-02-29T00:35:25.898Z,6.46
2024-02-29T00:38:28.241Z,6.38
2024-02-29T00:41:30.956Z,6.37
2024-02-29T00:44:33.356Z,6.32
2024-02-29T00:47:36.040Z,6.32
2024-02-29T00:50:38.443Z,6.40
2024-02-29T00:53:41.094Z,6.47
2024-02-29T00:56:43.453Z,6.50
2024-02-29T00:59:46.395Z,6.38
2024-02-29T01:02:48.859Z,6.52
2024-02-29T01:05:51.986Z,6.50
2024-02-29T01:08:54.391Z,6.46
2024-02-29T01:11:57.046Z,6.30
2024-02-29T01:14:59.503Z,6.30
2024-02-29T01:18:04.618Z,6.27
2024-02-29T01:21:07.774Z,6.24
2024-02-29T01:24:10.570Z,6.25
2024-02-29T01:27:13.070Z,6.28
2024-02-29T01:30:16.145Z,6.35
2024-02-29T01:33:18.681Z,6.39
2024-02-29T01:36:21.334Z,6.44
2024-02-29T01:39:23.738Z,6.48
2024-02-29T01:42:26.538Z,6.50
2024-02-29T01:45:29.022Z,6.53
2024-02-29T01:48:31.743Z,6.58
2024-02-29T01:51:34.475Z,6.57
2024-02-29T01:54:38.038Z,6.62
2024-02-29T01:57:40.947Z,6.65
2024-02-29T02:00:45.156Z,6.68
2024-02-29T02:03:47.898Z,6.68
2024-02-29T02:06:50.323Z,6.68
2024-02-29T02:09:53.050Z,6.68
2024-02-29T02:12:55.473Z,6.67
2024-02-29T02:15:58.291Z,6.64
2024-02-29T02:19:00.761Z,6.63
2024-02-29T02:22:05.505Z,6.62
2024-02-29T02:25:08.287Z,6.63
2024-02-29T02:28:13.094Z,6.64
2024-02-29T02:31:15.622Z,6.64
2024-02-29T02:34:18.391Z,6.60
2024-02-29T02:37:20.841Z,6.51
2024-02-29T02:40:23.768Z,6.42
2024-02-29T02:43:26.158Z,6.25
2024-02-29T02:46:28.827Z,6.07
2024-02-29T02:49:31.221Z,6.04
2024-02-29T02:52:33.977Z,5.93
2024-02-29T02:55:36.350Z,5.86
2024-02-29T02:58:40.019Z,5.74
2024-02-29T03:01:42.510Z,5.68
2024-02-29T03:04:45.257Z,5.60
2024-02-29T03:07:48.268Z,5.63
2024-02-29T03:10:50.964Z,5.42
2024-02-29T03:13:54.457Z,5.33
2024-02-29T03:16:57.470Z,5.43
2024-02-29T03:19:59.895Z,5.23
2024-02-29T03:23:02.620Z,5.09
2024-02-29T03:26:06.559Z,5.12
2024-02-29T03:29:09.336Z,5.18
2024-02-29T03:32:11.729Z,5.18
2024-02-29T03:35:14.478Z,5.10
2024-02-29T03:38:17.288Z,5.07
2024-02-29T03:41:19.928Z,5.07
2024-02-29T03:44:22.275Z,5.06
2024-02-29T03:47:24.990Z,5.15
2024-02-29T03:50:28.101Z,5.05
2024-02-29T03:53:30.797Z,4.93
2024-02-29T03:56:33.239Z,4.87
2024-02-29T03:59:35.998Z,4.82
2024-02-29T04:02:39.162Z,4.70
2024-02-29T04:05:41.841Z,4.64
2024-02-29T04:08:44.345Z,4.64
2024-02-29T04:11:47.099Z,4.61
2024-02-29T04:14:49.552Z,4.55
2024-02-29T04:17:52.293Z,4.54
2024-02-29T04:20:54.746Z,4.48
2024-02-29T04:23:57.406Z,4.39
2024-02-29T04:26:59.829Z,4.37
2024-02-29T04:30:02.544Z,4.35
2024-02-29T04:33:07.072Z,4.28
2024-02-29T04:36:09.912Z,4.23
2024-02-29T04:39:12.405Z,4.32
2024-02-29T04:42:15.085Z,4.23
2024-02-29T04:45:17.484Z,4.18
2024-02-29T04:48:20.228Z,4.09
2024-02-29T04:51:22.578Z,4.01
2024-02-29T04:54:25.216Z,4.01
2024-02-29T04:57:27.602Z,4.03
2024-02-29T05:00:30.232Z,3.97
2024-02-29T05:03:41.130Z,3.90
2024-02-29T05:06:43.956Z,3.82
2024-02-29T05:09:46.420Z,3.83
2024-02-29T05:12:51.865Z,3.57
2024-02-29T05:15:54.313Z,3.74
2024-02-29T05:18:57.009Z,3.70
2024-02-29T05:21:59.429Z,3.74
2024-02-29T05:25:02.165Z,3.73
2024-02-29T05:28:04.878Z,3.73
2024-02-29T05:31:07.616Z,3.64
2024-02-29T05:34:10.136Z,3.58
2024-02-29T05:37:13.000Z,3.52
2024-02-29T05:40:15.641Z,3.51
2024-02-29T05:43:19.226Z,3.39
2024-02-29T05:46:21.761Z,3.52
2024-02-29T05:49:24.544Z,3.47
2024-02-29T05:52:27.096Z,3.47
2024-02-29T05:55:29.834Z,3.50
2024-02-29T05:58:32.858Z,3.72
2024-02-29T06:01:36.134Z,3.71
2024-02-29T06:04:38.938Z,3.78
2024-02-29T06:07:41.365Z,3.88
2024-02-29T06:10:47.874Z,3.96
2024-02-29T06:13:50.405Z,3.94
2024-02-29T06:16:53.145Z,4.02
2024-02-29T06:19:55.528Z,4.12
2024-02-29T06:22:59.998Z,4.27
2024-02-29T06:26:02.420Z,4.44
2024-02-29T06:29:05.239Z,4.61
2024-02-29T06:32:07.696Z,4.75
2024-02-29T06:35:10.777Z,4.97
2024-02-29T06:38:13.262Z,5.15
2024-02-29T06:41:15.877Z,5.34
2024-02-29T06:44:18.326Z,5.52
2024-02-29T06:47:21.021Z,5.83
2024-02-29T06:50:23.493Z,5.98
2024-02-29T06:53:26.519Z,6.56
2024-02-29T06:56:28.987Z,6.97
2024-02-29T06:59:31.672Z,7.44
2024-02-29T07:02:34.404Z,7.45
2024-02-29T07:05:37.177Z,8.17
2024-02-29T07:08:39.735Z,8.40
2024-02-29T07:11:42.941Z,8.66
2024-02-29T07:14:45.595Z,8.86
2024-02-29T07:17:49.417Z,8.93
2024-02-29T07:20:52.092Z,9.66
2024-02-29T07:23:54.833Z,10.14
2024-02-29T07:26:57.775Z,10.54
2024-02-29T07:30:00.507Z,10.80
2024-02-29T07:33:03.071Z,10.59
2024-02-29T07:36:05.983Z,10.81
2024-02-29T07:39:08.557Z,10.88
2024-02-29T07:42:11.266Z,11.42
2024-02-29T07:45:13.921Z,11.80
2024-02-29T07:48:17.379Z,12.08
2024-02-29T07:51:19.941Z,12.57
2024-02-29T07:54:22.700Z,12.67
2024-02-29T07:57:26.121Z,12.07
2024-02-29T08:00:28.751Z,11.78
2024-02-29T08:03:31.544Z,13.14
2024-02-29T08:06:34.015Z,13.17
2024-02-29T08:09:36.914Z,12.72
2024-02-29T08:12:39.366Z,12.37
2024-02-29T08:15:42.020Z,12.65
2024-02-29T08:18:45.810Z,12.90
2024-02-29T08:21:49.340Z,12.94
2024-02-29T08:24:52.179Z,13.30
2024-02-29T08:27:55.363Z,12.99
2024-02-29T08:30:57.796Z,14.07
2024-02-29T08:34:00.907Z,14.64
2024-02-29T08:37:03.630Z,13.69
2024-02-29T08:40:07.212Z,14.56
2024-02-29T08:43:11.604Z,15.97
2024-02-29T08:46:14.467Z,14.65
2024-02-29T08:49:16.963Z,14.95
2024-02-29T08:52:20.339Z,16.18
2024-02-29T08:55:23.262Z,15.83
2024-02-29T08:58:26.094Z,16.40
2024-02-29T09:01:28.573Z,17.22
2024-02-29T09:04:31.853Z,16.82
2024-02-29T09:07:34.346Z,16.50
2024-02-29T09:10:37.502Z,16.85
2024-02-29T09:13:39.934Z,16.85
2024-02-29T09:16:42.950Z,17.81
2024-02-29T09:19:45.667Z,16.33
2024-02-29T09:22:50.304Z,17.54
2024-02-29T09:25:52.828Z,17.04
2024-02-29T09:28:55.538Z,17.62
2024-02-29T09:31:58.002Z,18.62
2024-02-29T09:35:00.698Z,17.49
2024-02-29T09:38:03.142Z,16.40
2024-02-29T09:41:13.276Z,16.65
2024-02-29T09:44:28.148Z,18.40
2024-02-29T09:47:32.431Z,16.04
2024-02-29T09:50:34.949Z,16.45
2024-02-29T09:53:39.298Z,17.11
2024-02-29T09:56:42.006Z,17.76
2024-02-29T09:59:44.964Z,18.22
2024-02-29T10:02:51.551Z,17.48
2024-02-29T10:05:56.829Z,19.60
2024-02-29T10:08:59.214Z,19.49
2024-02-29T10:12:03.202Z,20.01
2024-02-29T10:15:07.819Z,17.49
2024-02-29T10:18:10.541Z,17.70
2024-02-29T10:21:16.026Z,17.75
2024-02-29T10:24:23.283Z,17.85
2024-02-29T10:27:25.758Z,17.89
2024-02-29T10:30:28.791Z,17.97
2024-02-29T10:33:31.665Z,19.30
2024-02-29T10:36:34.451Z,18.17
2024-02-29T10:39:39.908Z,18.08
2024-02-29T10:42:43.243Z,17.60
2024-02-29T10:45:49.511Z,18.60
2024-02-29T10:49:16.101Z,17.28
2024-02-29T10:52:27.694Z,17.71
2024-02-29T10:55:31.995Z,18.64
2024-02-29T10:58:44.177Z,17.79
2024-02-29T11:01:48.295Z,17.01
2024-02-29T11:04:51.379Z,17.35
2024-02-29T11:07:54.589Z,17.01
2024-02-29T11:10:57.582Z,17.15
2024-02-29T11:14:21.378Z,16.98
2024-02-29T11:17:26.278Z,16.94
2024-02-29T11:20:30.784Z,17.53
2024-02-29T11:23:36.780Z,16.57
2024-02-29T11:26:39.598Z,17.62
2024-02-29T11:29:46.343Z,16.97
2024-02-29T11:32:49.103Z,15.69
2024-02-29T11:35:52.068Z,16.05
2024-02-29T11:38:56.012Z,15.26
2024-02-29T11:42:03.001Z,15.17
2024-02-29T11:45:07.222Z,15.04
2024-02-29T11:48:09.681Z,14.74
2024-02-29T11:51:12.437Z,14.86
2024-02-29T11:54:16.064Z,14.62
2024-02-29T11:57:19.495Z,14.72
2024-02-29T12:00:22.153Z,14.72
2024-02-29T12:03:25.726Z,14.75
2024-02-29T12:06:28.281Z,14.53
2024-02-29T12:09:33.314Z,14.58
2024-02-29T12:12:35.802Z,14.60
2024-02-29T12:15:39.066Z,14.62
2024-02-29T12:18:41.626Z,14.54
2024-02-29T12:21:45.099Z,14.41
2024-02-29T12:24:47.529Z,14.40
2024-02-29T12:27:50.330Z,14.24
2024-02-29T12:30:52.821Z,14.44
2024-02-29T12:33:56.255Z,14.57
2024-02-29T12:37:00.751Z,14.50
2024-02-29T12:40:05.608Z,14.67
2024-02-29T12:43:14.114Z,14.65
2024-02-29T12:46:18.223Z,14.58
2024-02-29T12:49:21.311Z,14.47
2024-02-29T12:52:24.108Z,14.54
2024-02-29T12:55:26.774Z,14.57
2024-02-29T12:58:29.497Z,14.49
2024-02-29T13:01:32.470Z,14.48
2024-02-29T13:04:35.459Z,14.52
2024-02-29T13:07:38.183Z,14.50
2024-02-29T13:10:41.109Z,14.32
2024-02-29T13:13:43.629Z,14.50
2024-02-29T13:16:46.393Z,14.45
2024-02-29T13:19:48.770Z,14.42
2024-02-29T13:22:51.522Z,14.43
2024-02-29T13:25:55.368Z,14.47
2024-02-29T13:28:58.118Z,14.52
2024-02-29T13:32:02.611Z,14.44
2024-02-29T13:35:07.143Z,14.58
2024-02-29T13:38:09.699Z,14.75
2024-02-29T13:41:12.366Z,14.86
2024-02-29T13:44:14.874Z,14.78
2024-02-29T13:47:17.755Z,14.91
2024-02-29T13:50:21.825Z,14.95
2024-02-29T13:53:24.897Z,14.92
2024-02-29T13:56:28.594Z,14.97
2024-02-29T13:59:31.270Z,14.90
2024-02-29T14:02:34.159Z,14.96
2024-02-29T14:05:37.106Z,15.05
2024-02-29T14:08:40.031Z,15.17
2024-02-29T14:11:43.638Z,15.24
2024-02-29T14:14:46.493Z,15.27
2024-02-29T14:17:49.959Z,15.27
2024-02-29T14:20:52.930Z,15.29
2024-02-29T14:23:55.711Z,15.26
2024-02-29T14:26:58.397Z,15.27
2024-02-29T14:30:01.964Z,15.18
2024-02-29T14:33:05.206Z,15.09
2024-02-29T14:36:12.796Z,14.98
2024-02-29T14:39:15.511Z,14.93
2024-02-29T14:42:18.355Z,14.83
2024-02-29T14:45:20.980Z,14.72
2024-02-29T14:48:24.735Z,14.63
2024-02-29T14:51:27.532Z,14.48
2024-02-29T14:54:30.334Z,14.50
2024-02-29T14:57:32.823Z,14.40
2024-02-29T15:00:36.023Z,14.34
2024-02-29T15:03:38.480Z,14.30
2024-02-29T15:06:42.199Z,14.22
2024-02-29T15:09:44.734Z,14.22
2024-02-29T15:12:47.886Z,14.21
2024-02-29T15:15:50.768Z,14.24
2024-02-29T15:18:54.065Z,14.23
2024-02-29T15:21:56.640Z,14.19
2024-02-29T15:24:59.565Z,14.20
2024-02-29T15:28:05.686Z,14.14
2024-02-29T15:31:09.315Z,14.07
2024-02-29T15:34:11.797Z,14.08
2024-02-29T15:37:14.590Z,14.11
2024-02-29T15:40:17.174Z,14.05
2024-02-29T15:43:20.080Z,14.02
2024-02-29T15:46:25.172Z,13.91
2024-02-29T15:49:28.187Z,13.89
2024-02-29T15:52:30.734Z,13.89
2024-02-29T15:55:33.520Z,13.79
2024-02-29T15:58:36.338Z,13.77
2024-02-29T16:01:39.146Z,13.64
2024-02-29T16:04:42.322Z,13.54
2024-02-29T16:07:44.793Z,13.36
2024-02-29T16:10:47.476Z,13.27
2024-02-29T16:13:50.926Z,13.09
2024-02-29T16:16:53.718Z,13.06
2024-02-29T16:19:56.770Z,12.89
2024-02-29T16:23:00.010Z,12.78
2024-02-29T16:26:05.972Z,12.65
2024-02-29T16:29:08.785Z,12.42
2024-02-29T16:32:11.709Z,12.39
2024-02-29T16:35:14.642Z,12.39
2024-02-29T16:38:17.334Z,12.53
2024-02-29T16:41:20.754Z,12.59
2024-02-29T16:44:27.420Z,12.71
2024-02-29T16:47:30.377Z,12.66
2024-02-29T16:50:33.205Z,12.70
2024-02-29T16:53:36.016Z,12.80
2024-02-29T16:56:38.443Z,12.67
2024-02-29T16:59:42.153Z,12.72
2024-02-29T17:02:45.263Z,12.64
2024-02-29T17:05:48.248Z,12.44
2024-02-29T17:08:50.705Z,12.35
2024-02-29T17:11:53.614Z,12.49
2024-02-29T17:14:56.298Z,12.59
2024-02-29T17:17:59.271Z,12.44
2024-02-29T17:21:01.923Z,12.23
2024-02-29T17:24:04.705Z,12.20
2024-02-29T17:27:07.483Z,12.14
2024-02-29T17:30:12.949Z,12.23
2024-02-29T17:33:15.516Z,12.23
2024-02-29T17:36:18.647Z,12.16
2024-02-29T17:39:21.473Z,12.10
2024-02-29T17:42:25.848Z,12.02
2024-02-29T17:45:28.284Z,11.99
2024-02-29T17:48:31.317Z,11.93
2024-02-29T17:51:35.797Z,12.03
2024-02-29T17:54:38.460Z,11.97
2024-02-29T17:57:40.980Z,11.98
2024-02-29T18:00:43.858Z,11.96
2024-02-29T18:03:47.205Z,11.95
2024-02-29T18:06:51.448Z,11.91
2024-02-29T18:09:56.076Z,11.80
2024-02-29T18:12:59.189Z,11.82
2024-02-29T18:16:02.290Z,11.82
2024-02-29T18:19:05.165Z,11.71
2024-02-29T18:22:07.912Z,11.73
2024-02-29T18:25:10.744Z,11.72
2024-02-29T18:28:15.824Z,11.67
2024-02-29T18:31:18.617Z,11.69
2024-02-29T18:34:21.678Z,11.64
2024-02-29T18:37:26.147Z,11.60
2024-02-29T18:40:30.946Z,11.64
2024-02-29T18:43:33.712Z,11.65
2024-02-29T18:46:36.840Z,11.59
2024-02-29T18:49:41.175Z,11.55
2024-02-29T18:52:44.622Z,11.54
2024-02-29T18:55:47.356Z,11.54
2024-02-29T18:58:50.328Z,11.51
2024-02-29T19:01:56.742Z,11.48
2024-02-29T19:04:59.763Z,11.51
2024-02-29T19:08:02.855Z,11.40
2024-02-29T19:11:05.709Z,11.42
2024-02-29T19:14:08.166Z,11.28
2024-02-29T19:17:11.087Z,11.21
2024-02-29T19:20:13.702Z,11.24
2024-02-29T19:23:16.587Z,11.31
2024-02-29T19:26:19.044Z,11.40
2024-02-29T19:29:22.157Z,11.45
2024-02-29T19:32:25.094Z,11.47
2024-02-29T19:35:29.166Z,11.43
2024-02-29T19:38:32.290Z,11.50
2024-02-29T19:41:35.187Z,11.51
2024-02-29T19:44:38.052Z,11.54
2024-02-29T19:47:41.320Z,11.53
2024-02-29T19:50:43.737Z,11.54
2024-02-29T19:53:47.830Z,11.51
2024-02-29T19:56:50.669Z,11.49
2024-02-29T19:59:53.484Z,11.53
2024-02-29T20:02:56.324Z,11.52
2024-02-29T20:05:59.461Z,11.36
2024-02-29T20:09:02.069Z,11.53
2024-02-29T20:12:05.440Z,11.48
2024-02-29T20:15:08.680Z,11.44
2024-02-29T20:18:11.631Z,11.38
2024-02-29T20:21:16.967Z,11.35
2024-02-29T20:24:19.858Z,11.31
2024-02-29T20:27:23.674Z,11.27
2024-02-29T20:30:28.100Z,11.24
2024-02-29T20:33:30.697Z,11.17
2024-02-29T20:36:33.828Z,11.14
2024-02-29T20:39:36.625Z,11.06
2024-02-29T20:42:39.347Z,10.96
2024-02-29T20:45:41.974Z,10.87
2024-02-29T20:48:45.801Z,10.83
2024-02-29T20:51:48.518Z,10.76
2024-02-29T20:54:51.277Z,10.67
2024-02-29T20:57:54.052Z,10.55
2024-02-29T21:00:57.169Z,10.43
2024-02-29T21:03:59.986Z,10.34
2024-02-29T21:07:02.867Z,10.27
2024-02-29T21:10:05.670Z,10.23
2024-02-29T21:13:11.415Z,10.14
2024-02-29T21:16:13.807Z,10.04
2024-02-29T21:19:16.605Z,10.10
2024-02-29T21:22:19.202Z,10.11
2024-02-29T21:25:22.101Z,10.15
2024-02-29T21:28:24.605Z,10.11
2024-02-29T21:31:28.187Z,10.03
2024-02-29T21:34:30.682Z,9.98
2024-02-29T21:37:33.478Z,9.77
2024-02-29T21:40:36.055Z,9.86
2024-02-29T21:43:38.870Z,9.83
2024-02-29T21:46:41.495Z,9.85
2024-02-29T21:49:45.687Z,9.81
2024-02-29T21:52:49.502Z,9.73
2024-02-29T21:55:52.328Z,9.65
2024-02-29T21:58:54.776Z,9.35
2024-02-29T22:01:57.749Z,9.59
2024-02-29T22:05:00.730Z,9.43
2024-02-29T22:08:03.347Z,9.28
2024-02-29T22:11:06.092Z,9.18
2024-02-29T22:14:08.554Z,9.14
2024-02-29T22:17:11.350Z,9.14
2024-02-29T22:20:13.748Z,9.10
2024-02-29T22:23:16.530Z,9.01
2024-02-29T22:26:19.084Z,8.89
2024-02-29T22:29:23.021Z,8.83
2024-02-29T22:32:25.449Z,8.80
2024-02-29T22:35:28.112Z,8.79
2024-02-29T22:38:30.502Z,8.81
2024-02-29T22:41:38.055Z,8.75
2024-02-29T22:44:43.809Z,8.70
2024-02-29T22:47:46.572Z,8.66
2024-02-29T22:50:49.105Z,8.62
2024-02-29T22:53:51.785Z,8.51
2024-02-29T22:56:54.487Z,8.45
2024-02-29T22:59:58.061Z,8.41
2024-02-29T23:03:02.099Z,8.22
2024-02-29T23:06:05.517Z,8.16
2024-02-29T23:09:07.953Z,8.05
2024-02-29T23:12:10.984Z,8.01
2024-02-29T23:15:13.572Z,8.01
2024-02-29T23:18:16.815Z,8.05
2024-02-29T23:21:19.270Z,8.06
2024-02-29T23:24:21.980Z,8.16
2024-02-29T23:27:24.448Z,8.23
2024-02-29T23:30:27.127Z,8.29
2024-02-29T23:33:29.524Z,8.32
2024-02-29T23:36:32.168Z,8.27
2024-02-29T23:39:35.533Z,8.19
2024-02-29T23:42:38.171Z,7.94
2024-02-29T23:45:40.532Z,7.74
2024-02-29T23:48:43.185Z,7.56
2024-02-29T23:51:45.632Z,7.37
2024-02-29T23:54:48.437Z,7.28
2024-02-29T23:57:50.960Z,7.23
